Canyon, MN (55717)

8:47 PM CDT on March 24, 2017 (GMT -0500)
Caribou Lake | | Change Station

Elev 1391 ft 46.90 °N, 92.30 °W | Updated 24 seconds ago

Overcast
Overcast
32.6 °F
Feels Like 33 °F
N
2.0
Wind Variable Wind from ESE

Today
High -- | Low -- °F
--% Chance of Precip.
Yesterday
High -- | Low -- °F
Precip. -- in
Pressure 30.21 in
Visibility 6.0 miles
Clouds Mostly Cloudy 1100 ft
Overcast 1700 ft
Windchill 33 °F
Dew Point 31 °F
Humidity 96%
Rainfall 0.02 in
Snow Depth Not available.
7:04 AM 7:28 PM
Waning Crescent, 11% visible
SPECI KDLH 250110Z 10007KT 6SM BR BKN011 OVC017 02/00 A3021 RMK AO2 T00170000
Pressure 30.21 in
Visibility 6.0 miles
Clouds Mostly Cloudy 1100 ft
Overcast 1700 ft
Windchill 33 °F
Dew Point 31 °F
Humidity 96%
Rainfall 0.02 in
Snow Depth Not available.
7:04 AM 7:28 PM
Waning Crescent, 11% visible
SPECI KDLH 250110Z 10007KT 6SM BR BKN011 OVC017 02/00 A3021 RMK AO2 T00170000

Get Severe Weather Alerts

Thanks for signing up!

Be on the lookout for a verification email in your inbox.

You'll start receiving the daily forecast at 8 AM.

×

10-Day Weather Forecast

Almanac

Astronomy

Mar. 24, 2017 Rise Set
Actual Time
Civil Twilight
Nautical Twilight
Astronomical Twilight
Moon
Length of Visible Light
Length of Day
Tomorrow will be .
, % of the Moon is Illuminated

Today's Extremes

State Highs State Lows

Community

WunderPhotos

Upload Photos

1,962,540 photos uploaded!

WunderBlog® & News

Nearby

Air Quality

  Air Quality AQ Index Pollutant
Not available.

Snow Depth

Station Depth Elevation

Earthquake Activity

City Distance Mag. Time & Date
Minimum magnitude displayed is 2.5.

Earthquake Activity

City Distance Mag. Time & Date
Minimum magnitude displayed is 2.5.

Coastal Water Temperatures

Place Temperature

Stations

Nearby Weather Stations

Station Location Temp. Windchill Dew Point Humidity Wind Precip. Elev Updated Type
                   

Watches & Warnings

There are currently no watches in effect.